Time;durP1;ratioP1;P1;durP2;ratioP2;P2;SDS_P1;SDS_P2;PMS_P1;PMS_P2;Temp;Humidity;BMP_temperature;BMP_pressure;BME280_temperature;BME280_humidity;BME280_pressure;Samples;Min_cycle;Max_cycle;Signal;HPM_P1;HPM_P2
2021/08/07 00:01:27;;;;;;;2.70;2.50;;;17.40;99.90;;;;;;5076236;28;20465;-73
2021/08/07 00:03:54;;;;;;;2.50;2.30;;;17.40;99.90;;;;;;5076146;28;20486;-73
2021/08/07 00:06:21;;;;;;;2.60;2.37;;;17.40;99.90;;;;;;5076103;28;20469;-73
2021/08/07 00:08:48;;;;;;;2.97;2.37;;;17.40;99.90;;;;;;5076190;28;20458;-73
2021/08/07 00:11:15;;;;;;;3.27;3.00;;;17.40;99.90;;;;;;5075924;28;20532;-73
2021/08/07 00:13:42;;;;;;;2.87;2.63;;;17.40;99.90;;;;;;5075933;28;20827;-73
2021/08/07 00:16:10;;;;;;;4.43;3.00;;;17.40;99.90;;;;;;5075711;28;20906;-73
2021/08/07 00:18:37;;;;;;;2.77;2.57;;;17.30;99.90;;;;;;5076278;28;21005;-73
2021/08/07 00:21:04;;;;;;;4.57;3.10;;;17.30;99.90;;;;;;5075658;28;20520;-73
2021/08/07 00:23:30;;;;;;;3.00;2.80;;;17.30;99.90;;;;;;5075558;28;20477;-73
2021/08/07 00:25:57;;;;;;;4.10;2.63;;;17.30;99.90;;;;;;5075752;28;20469;-73
2021/08/07 00:28:24;;;;;;;2.73;2.53;;;17.30;99.90;;;;;;5075759;28;20466;-73
2021/08/07 00:30:50;;;;;;;3.10;2.80;;;17.30;99.90;;;;;;5075576;28;20460;-73
2021/08/07 00:33:19;;;;;;;2.70;2.50;;;17.20;99.90;;;;;;5075394;28;20455;-73
2021/08/07 00:35:46;;;;;;;2.97;2.77;;;17.20;99.90;;;;;;5075775;28;20469;-73
2021/08/07 00:38:13;;;;;;;3.77;3.47;;;17.20;99.90;;;;;;5075321;28;20473;-73
2021/08/07 00:40:40;;;;;;;3.40;3.10;;;17.20;99.90;;;;;;5075057;28;20491;-73
2021/08/07 00:43:09;;;;;;;3.00;2.80;;;17.20;99.90;;;;;;5075344;28;20466;-73
2021/08/07 00:45:36;;;;;;;3.10;2.90;;;17.20;99.90;;;;;;5075445;28;20497;-73
2021/08/07 00:48:03;;;;;;;2.90;2.70;;;17.20;99.90;;;;;;5075629;28;20462;-73
2021/08/07 00:50:31;;;;;;;4.43;3.23;;;17.20;99.90;;;;;;5075692;28;20922;-73
2021/08/07 00:52:57;;;;;;;3.50;3.10;;;17.20;99.90;;;;;;5075100;28;20553;-73
2021/08/07 00:55:24;;;;;;;3.60;3.30;;;17.20;99.90;;;;;;5075077;28;20454;-72
2021/08/07 00:57:51;;;;;;;3.70;3.40;;;17.20;99.90;;;;;;5075036;28;20458;-73
2021/08/07 01:00:18;;;;;;;3.97;3.60;;;17.20;99.90;;;;;;5075043;28;20454;-72
2021/08/07 01:02:59;;;;;;;3.20;3.00;;;17.10;99.90;;;;;;5074468;28;20461;-73
2021/08/07 01:05:35;;;;;;;8.50;3.00;;;17.10;99.90;;;;;;5075059;28;20442;-73
2021/08/07 01:08:11;;;;;;;3.60;3.30;;;17.10;99.90;;;;;;5075252;28;20465;-73
2021/08/07 01:10:44;;;;;;;3.40;3.10;;;17.10;99.90;;;;;;5075188;28;20449;-73
2021/08/07 01:13:17;;;;;;;3.90;3.20;;;17.10;99.90;;;;;;5074861;28;20466;-73
2021/08/07 01:15:50;;;;;;;4.77;3.87;;;17.10;99.90;;;;;;5074580;28;20442;-73
2021/08/07 01:18:21;;;;;;;3.67;3.27;;;17.10;99.90;;;;;;5074929;28;20457;-72
2021/08/07 01:20:52;;;;;;;3.83;3.50;;;17.10;99.90;;;;;;5074900;28;20917;-72
2021/08/07 01:23:32;;;;;;;4.23;3.80;;;17.00;99.90;;;;;;5074417;28;20516;-73
2021/08/07 01:26:07;;;;;;;3.97;3.63;;;17.00;99.90;;;;;;5074944;28;20877;-72
2021/08/07 01:28:39;;;;;;;3.80;3.50;;;17.00;99.90;;;;;;5075205;28;20452;-72
2021/08/07 01:31:09;;;;;;;3.43;3.13;;;17.00;99.90;;;;;;5074615;28;20453;-72
2021/08/07 01:33:36;;;;;;;3.47;3.17;;;17.00;99.90;;;;;;5074548;28;20462;-73
2021/08/07 01:36:03;;;;;;;6.00;4.03;;;17.00;99.90;;;;;;5074611;28;20465;-74
2021/08/07 01:38:30;;;;;;;4.63;3.03;;;17.00;99.90;;;;;;5074164;28;20447;-74
2021/08/07 01:40:57;;;;;;;3.90;3.60;;;17.00;99.90;;;;;;5074920;28;20770;-73
2021/08/07 01:43:24;;;;;;;3.60;3.30;;;17.00;99.90;;;;;;5074469;28;20466;-73
2021/08/07 01:45:52;;;;;;;5.20;3.43;;;17.00;99.90;;;;;;5073973;28;20465;-73
2021/08/07 01:48:31;;;;;;;3.27;2.93;;;17.00;99.90;;;;;;5074539;28;20469;-73
2021/08/07 01:51:05;;;;;;;4.07;3.70;;;17.00;99.90;;;;;;5074325;28;20446;-74
2021/08/07 01:53:35;;;;;;;6.70;3.60;;;17.00;99.90;;;;;;5074034;28;20430;-73
2021/08/07 01:56:06;;;;;;;3.63;3.17;;;16.90;99.90;;;;;;5074166;28;20764;-73
2021/08/07 01:58:37;;;;;;;4.53;3.50;;;16.90;99.90;;;;;;5073984;28;20496;-74
2021/08/07 02:01:05;;;;;;;4.87;3.17;;;16.90;99.90;;;;;;5074871;28;20442;-73
2021/08/07 02:03:33;;;;;;;4.40;3.97;;;16.90;99.90;;;;;;5074702;28;20450;-73
2021/08/07 02:06:01;;;;;;;3.60;3.30;;;16.90;99.90;;;;;;5074198;28;20572;-74
2021/08/07 02:08:28;;;;;;;5.37;3.47;;;16.80;99.90;;;;;;5074154;28;20450;-73
2021/08/07 02:10:57;;;;;;;3.70;3.40;;;16.80;99.90;;;;;;5074151;28;20461;-73
2021/08/07 02:13:25;;;;;;;4.97;3.67;;;16.80;99.90;;;;;;5076277;28;20490;-73
2021/08/07 02:15:54;;;;;;;4.23;3.63;;;16.80;99.90;;;;;;5078272;28;20515;-74
2021/08/07 02:18:24;;;;;;;3.93;3.63;;;16.80;99.90;;;;;;5078056;28;20464;-73
2021/08/07 02:20:52;;;;;;;4.50;3.90;;;16.80;99.90;;;;;;5078217;28;20458;-73
2021/08/07 02:23:19;;;;;;;3.87;3.47;;;16.80;99.90;;;;;;5078222;28;20450;-73
2021/08/07 02:25:56;;;;;;;4.10;3.80;;;16.80;99.90;;;;;;5077856;28;20776;-73
2021/08/07 02:28:23;;;;;;;3.97;3.60;;;16.80;99.90;;;;;;5078372;28;20442;-73
2021/08/07 02:30:51;;;;;;;4.00;3.70;;;16.80;99.90;;;;;;5078104;28;20545;-72
2021/08/07 02:33:23;;;;;;;4.83;4.00;;;16.80;99.90;;;;;;5078257;28;20482;-73
2021/08/07 02:35:52;;;;;;;4.10;3.80;;;16.80;99.90;;;;;;5077947;28;20438;-73
2021/08/07 02:38:19;;;;;;;4.23;3.83;;;16.80;99.90;;;;;;5078340;28;20830;-74
2021/08/07 02:40:47;;;;;;;4.83;3.80;;;16.70;99.90;;;;;;5078125;28;20453;-74
2021/08/07 02:43:15;;;;;;;3.63;3.33;;;16.70;99.90;;;;;;5078517;28;20509;-73
2021/08/07 02:45:43;;;;;;;6.07;4.00;;;16.70;99.90;;;;;;5080713;28;20484;-73
2021/08/07 02:48:11;;;;;;;4.17;3.80;;;16.70;99.90;;;;;;5080846;28;20445;-73
2021/08/07 02:50:41;;;;;;;4.07;3.77;;;16.70;99.90;;;;;;5083381;28;20477;-73
2021/08/07 02:53:07;;;;;;;5.20;3.33;;;16.70;99.90;;;;;;5083844;28;20501;-74
2021/08/07 02:55:36;;;;;;;5.30;4.00;;;16.70;99.90;;;;;;5082364;28;20462;-73
2021/08/07 02:58:04;;;;;;;4.17;3.77;;;16.70;99.90;;;;;;5081338;28;20906;-73
2021/08/07 03:00:31;;;;;;;4.37;3.97;;;16.70;99.90;;;;;;5081680;28;20468;-73
2021/08/07 03:02:58;;;;;;;4.60;3.80;;;16.70;99.90;;;;;;5081327;28;20450;-73
2021/08/07 03:05:25;;;;;;;4.63;4.20;;;16.70;99.90;;;;;;5080694;28;20465;-73
2021/08/07 03:07:53;;;;;;;4.07;3.67;;;16.70;99.90;;;;;;5082930;28;20488;-74
2021/08/07 03:10:20;;;;;;;3.90;3.60;;;16.70;99.90;;;;;;5080613;28;20458;-73
2021/08/07 03:12:49;;;;;;;3.60;3.30;;;16.70;99.90;;;;;;5077363;28;20485;-73
2021/08/07 03:15:19;;;;;;;5.30;3.50;;;16.70;99.90;;;;;;5077921;28;20484;-73
2021/08/07 03:17:45;;;;;;;4.10;3.70;;;16.70;99.90;;;;;;5077226;28;20450;-73
2021/08/07 03:20:13;;;;;;;4.63;3.50;;;16.70;99.90;;;;;;5077279;28;20458;-73
2021/08/07 03:22:40;;;;;;;4.20;3.90;;;16.70;99.90;;;;;;5076914;28;20557;-73
2021/08/07 03:25:09;;;;;;;4.57;4.17;;;16.70;99.90;;;;;;5075748;28;20454;-73
2021/08/07 03:27:36;;;;;;;4.10;3.77;;;16.70;99.90;;;;;;5076785;28;20461;-73
2021/08/07 03:30:04;;;;;;;4.50;3.50;;;16.70;99.90;;;;;;5076681;28;20493;-72
2021/08/07 03:32:30;;;;;;;4.70;3.17;;;16.70;99.90;;;;;;5076869;28;20489;-74
2021/08/07 03:34:57;;;;;;;3.93;3.63;;;16.70;99.90;;;;;;5076725;28;20458;-73
2021/08/07 03:37:24;;;;;;;4.53;4.10;;;16.70;99.90;;;;;;5076520;28;20907;-73
2021/08/07 03:39:50;;;;;;;5.10;4.13;;;16.70;99.90;;;;;;5076369;28;20485;-73
2021/08/07 03:42:19;;;;;;;4.13;3.83;;;16.70;99.90;;;;;;5076572;28;20493;-73
2021/08/07 03:44:45;;;;;;;4.73;3.87;;;16.70;99.90;;;;;;5076153;28;20519;-74
2021/08/07 03:47:14;;;;;;;4.40;3.60;;;16.70;99.90;;;;;;5076380;28;20493;-73
2021/08/07 03:49:42;;;;;;;4.27;3.90;;;16.70;99.90;;;;;;5076988;28;20516;-73
2021/08/07 03:52:10;;;;;;;3.77;3.37;;;16.70;99.90;;;;;;5076727;28;20953;-73
2021/08/07 03:54:38;;;;;;;4.30;3.90;;;16.70;99.90;;;;;;5076165;28;21060;-76
2021/08/07 03:57:06;;;;;;;4.00;3.70;;;16.70;99.90;;;;;;5076476;28;20459;-73
2021/08/07 03:59:34;;;;;;;8.00;3.87;;;16.70;99.90;;;;;;5076068;28;20462;-74
2021/08/07 04:02:02;;;;;;;4.00;3.70;;;16.70;99.90;;;;;;5076492;28;20461;-74
2021/08/07 04:04:29;;;;;;;4.63;3.67;;;16.70;99.90;;;;;;5076477;28;20450;-73
2021/08/07 04:06:57;;;;;;;7.70;3.70;;;16.70;99.90;;;;;;5076370;28;20461;-73
2021/08/07 04:09:26;;;;;;;6.53;3.63;;;16.80;99.90;;;;;;5075658;28;20469;-74
2021/08/07 04:11:54;;;;;;;4.47;3.97;;;16.80;99.90;;;;;;5076315;28;20519;-73
2021/08/07 04:14:22;;;;;;;4.00;3.70;;;16.80;99.90;;;;;;5075959;28;20469;-73
2021/08/07 04:16:50;;;;;;;4.77;4.27;;;16.80;99.90;;;;;;5076080;28;20474;-74
2021/08/07 04:19:16;;;;;;;4.60;4.20;;;16.80;99.90;;;;;;5075933;28;20484;-74
2021/08/07 04:21:44;;;;;;;4.23;3.90;;;16.80;99.90;;;;;;5076459;28;20527;-74
2021/08/07 04:24:11;;;;;;;4.40;4.00;;;16.90;99.90;;;;;;5075876;28;20454;-74
2021/08/07 04:26:39;;;;;;;4.20;3.80;;;16.80;99.90;;;;;;5075828;28;20469;-74
2021/08/07 04:29:06;;;;;;;6.70;4.30;;;16.80;99.90;;;;;;5075700;28;20519;-74
2021/08/07 04:31:33;;;;;;;4.60;4.10;;;16.80;99.90;;;;;;5076089;28;20485;-74
2021/08/07 04:34:01;;;;;;;4.03;3.63;;;16.90;99.90;;;;;;5076304;28;20482;-73
2021/08/07 04:36:28;;;;;;;4.60;4.10;;;16.90;99.90;;;;;;5075777;28;20519;-73
2021/08/07 04:38:55;;;;;;;7.10;4.70;;;16.90;99.90;;;;;;5075040;28;20811;-72
2021/08/07 04:41:21;;;;;;;4.23;3.93;;;16.90;99.90;;;;;;5075818;28;20458;-73
2021/08/07 04:43:48;;;;;;;4.87;4.20;;;16.90;99.90;;;;;;5075184;28;20450;-73
2021/08/07 04:46:15;;;;;;;3.80;3.50;;;16.90;99.90;;;;;;5075793;28;20762;-73
2021/08/07 04:48:43;;;;;;;3.90;3.50;;;17.00;99.90;;;;;;5075649;28;20467;-73
2021/08/07 04:51:11;;;;;;;4.27;3.60;;;17.00;99.90;;;;;;5075747;28;20458;-74
2021/08/07 04:53:38;;;;;;;4.27;3.83;;;17.00;99.90;;;;;;5075503;28;20482;-73
2021/08/07 04:56:06;;;;;;;4.80;4.17;;;17.10;99.90;;;;;;5076160;28;20468;-73
2021/08/07 04:58:33;;;;;;;5.50;3.90;;;17.10;99.90;;;;;;5075540;28;20459;-73
2021/08/07 05:01:00;;;;;;;7.00;4.23;;;17.20;99.90;;;;;;5075831;28;20462;-74
2021/08/07 05:03:26;;;;;;;3.83;3.53;;;17.20;99.90;;;;;;5075645;28;20516;-74
2021/08/07 05:05:56;;;;;;;4.47;4.07;;;17.20;99.90;;;;;;5075342;28;20480;-74
2021/08/07 05:08:24;;;;;;;6.70;3.37;;;17.20;99.90;;;;;;5075429;28;20767;-74
2021/08/07 05:10:51;;;;;;;7.50;3.60;;;17.30;99.90;;;;;;5075333;28;20462;-73
2021/08/07 05:13:19;;;;;;;3.97;3.50;;;17.30;99.90;;;;;;5075517;28;20474;-73
2021/08/07 05:15:47;;;;;;;4.67;4.20;;;17.30;99.90;;;;;;5075165;28;20617;-74
2021/08/07 05:18:14;;;;;;;4.50;3.67;;;17.40;99.90;;;;;;5075299;28;20454;-75
2021/08/07 05:20:42;;;;;;;6.67;4.60;;;17.40;99.90;;;;;;5074911;28;20454;-73
2021/08/07 05:23:10;;;;;;;3.90;3.60;;;17.50;99.90;;;;;;5074858;28;20455;-74
2021/08/07 05:25:39;;;;;;;6.63;3.53;;;17.50;99.90;;;;;;5074866;28;20470;-74
2021/08/07 05:28:06;;;;;;;4.07;3.73;;;17.60;99.90;;;;;;5074895;28;20950;-74
2021/08/07 05:30:33;;;;;;;4.43;3.43;;;17.60;99.90;;;;;;5074804;28;20761;-74
2021/08/07 05:33:01;;;;;;;7.60;3.53;;;17.60;99.90;;;;;;5074744;28;20478;-74
2021/08/07 05:35:28;;;;;;;4.97;3.50;;;17.70;99.90;;;;;;5075236;28;20740;-74
2021/08/07 05:37:54;;;;;;;3.50;3.20;;;17.70;99.90;;;;;;5074747;28;20443;-74
2021/08/07 05:40:22;;;;;;;3.43;3.13;;;17.80;99.90;;;;;;5074689;28;20872;-74
2021/08/07 05:42:50;;;;;;;4.73;3.40;;;17.90;99.90;;;;;;5075136;28;20461;-74
2021/08/07 05:45:17;;;;;;;4.50;4.10;;;17.90;99.90;;;;;;5074686;28;20474;-74
2021/08/07 05:47:44;;;;;;;3.70;3.40;;;18.00;99.90;;;;;;5074273;28;20462;-74
2021/08/07 05:50:12;;;;;;;4.30;3.50;;;18.10;99.90;;;;;;5074826;28;20500;-74
2021/08/07 05:52:39;;;;;;;7.83;3.53;;;18.10;99.90;;;;;;5074299;28;20976;-73
2021/08/07 05:55:08;;;;;;;4.93;3.13;;;18.20;99.90;;;;;;5074581;28;20801;-74
2021/08/07 05:57:34;;;;;;;4.00;3.37;;;18.30;99.90;;;;;;5074278;28;20458;-74
2021/08/07 06:00:04;;;;;;;3.50;3.00;;;18.30;99.90;;;;;;5075064;28;20774;-74
2021/08/07 06:02:32;;;;;;;5.13;3.10;;;18.40;99.90;;;;;;5074755;28;20763;-73
2021/08/07 06:04:59;;;;;;;4.63;2.90;;;18.50;99.90;;;;;;5074531;28;20929;-74
2021/08/07 06:07:27;;;;;;;7.00;3.40;;;18.50;99.90;;;;;;5074791;28;20465;-74
2021/08/07 06:09:54;;;;;;;2.60;2.40;;;18.60;99.90;;;;;;5074416;28;20462;-74
2021/08/07 06:12:22;;;;;;;5.87;3.13;;;18.70;99.90;;;;;;5075654;28;20480;-74
2021/08/07 06:14:48;;;;;;;3.90;3.50;;;18.70;99.90;;;;;;5078454;28;20494;-75
2021/08/07 06:17:18;;;;;;;3.23;2.93;;;18.80;99.90;;;;;;5078355;28;20542;-74
2021/08/07 06:19:44;;;;;;;5.57;3.53;;;18.70;99.90;;;;;;5078289;28;20454;-74
2021/08/07 06:22:11;;;;;;;3.87;3.03;;;18.80;99.90;;;;;;5078892;28;20454;-74
2021/08/07 06:24:38;;;;;;;6.13;3.30;;;18.70;99.90;;;;;;5080470;28;20461;-74
2021/08/07 06:27:07;;;;;;;7.13;3.07;;;18.70;99.90;;;;;;5081473;28;20458;-74
2021/08/07 06:29:34;;;;;;;5.80;3.00;;;18.70;99.90;;;;;;5080896;28;20454;-74
2021/08/07 06:32:01;;;;;;;3.53;3.23;;;18.70;99.90;;;;;;5082189;28;20461;-74
2021/08/07 06:34:30;;;;;;;5.10;3.27;;;18.70;99.90;;;;;;5081040;28;20486;-73
2021/08/07 06:36:57;;;;;;;3.87;3.07;;;18.80;99.90;;;;;;5081804;28;20466;-74
2021/08/07 06:39:23;;;;;;;5.27;3.50;;;18.90;99.90;;;;;;5080637;28;20482;-74
2021/08/07 06:41:50;;;;;;;6.27;3.70;;;18.90;99.90;;;;;;5081004;28;20768;-74
2021/08/07 06:44:18;;;;;;;3.70;3.23;;;18.90;99.90;;;;;;5081105;28;20477;-74
2021/08/07 06:46:44;;;;;;;4.57;3.30;;;19.00;99.90;;;;;;5081624;28;20923;-73
2021/08/07 06:49:11;;;;;;;6.90;3.40;;;19.10;99.90;;;;;;5080566;28;20453;-74
2021/08/07 06:51:39;;;;;;;3.50;3.20;;;19.10;99.90;;;;;;5080016;28;20454;-73
2021/08/07 06:54:06;;;;;;;4.87;4.37;;;19.20;99.90;;;;;;5075921;28;20486;-73
2021/08/07 06:56:33;;;;;;;3.80;3.40;;;19.20;99.90;;;;;;5073972;28;20465;-73
2021/08/07 06:58:59;;;;;;;10.03;3.67;;;19.20;99.90;;;;;;5073932;28;20449;-73
2021/08/07 07:01:27;;;;;;;3.33;3.00;;;19.30;99.90;;;;;;5078039;28;20458;-73
2021/08/07 07:03:54;;;;;;;3.90;3.30;;;19.30;99.90;;;;;;5077975;28;20769;-73
2021/08/07 07:06:21;;;;;;;7.30;3.53;;;19.40;99.90;;;;;;5078132;28;20453;-73
2021/08/07 07:08:49;;;;;;;5.70;3.20;;;19.40;99.90;;;;;;5076828;28;20458;-73
2021/08/07 07:11:17;;;;;;;3.97;3.10;;;19.50;99.90;;;;;;5077317;28;20581;-74
2021/08/07 07:13:48;;;;;;;3.40;3.10;;;19.50;99.90;;;;;;5076832;28;20485;-74
2021/08/07 07:16:16;;;;;;;3.10;2.80;;;19.50;99.90;;;;;;5077430;28;20438;-73
2021/08/07 07:18:42;;;;;;;3.37;3.07;;;19.50;99.90;;;;;;5077042;28;20457;-74
2021/08/07 07:21:09;;;;;;;4.07;3.57;;;19.60;99.90;;;;;;5076833;28;20454;-74
2021/08/07 07:23:36;;;;;;;3.97;3.57;;;19.60;99.90;;;;;;5077175;28;20465;-74
2021/08/07 07:26:04;;;;;;;4.47;2.90;;;19.70;99.90;;;;;;5077348;28;20512;-74
2021/08/07 07:28:33;;;;;;;8.03;3.50;;;19.80;99.90;;;;;;5076858;28;20860;-74
2021/08/07 07:30:59;;;;;;;2.77;2.57;;;19.80;99.90;;;;;;5077515;28;20454;-74
2021/08/07 07:33:26;;;;;;;3.13;2.90;;;19.90;99.90;;;;;;5076565;28;20474;-74
2021/08/07 07:35:54;;;;;;;5.80;2.60;;;19.90;99.90;;;;;;5077435;28;20454;-75
2021/08/07 07:38:21;;;;;;;4.50;3.43;;;20.00;99.90;;;;;;5076051;28;20463;-74
2021/08/07 07:40:49;;;;;;;5.17;3.10;;;20.00;99.90;;;;;;5076515;28;20824;-74
2021/08/07 07:43:20;;;;;;;3.33;3.03;;;20.10;99.90;;;;;;5076577;28;20454;-74
2021/08/07 07:45:47;;;;;;;3.93;3.23;;;20.10;99.90;;;;;;5077301;28;20475;-74
2021/08/07 07:48:15;;;;;;;3.60;3.30;;;20.10;99.90;;;;;;5077066;28;20933;-74
2021/08/07 07:50:41;;;;;;;3.70;2.80;;;20.20;99.90;;;;;;5077916;28;20465;-74
2021/08/07 07:53:08;;;;;;;3.33;3.03;;;20.30;99.90;;;;;;5077056;28;20455;-74
2021/08/07 07:55:36;;;;;;;3.07;2.83;;;20.30;99.90;;;;;;5077483;28;20465;-74
2021/08/07 07:58:03;;;;;;;4.37;3.20;;;20.40;99.90;;;;;;5077717;28;20458;-74
2021/08/07 08:00:31;;;;;;;2.73;2.53;;;20.50;99.90;;;;;;5077585;28;20780;-74
2021/08/07 08:02:59;;;;;;;3.17;2.90;;;20.50;99.90;;;;;;5077034;28;20455;-74
2021/08/07 08:05:27;;;;;;;4.30;3.00;;;20.60;99.90;;;;;;5077224;28;20454;-75
2021/08/07 08:07:55;;;;;;;3.17;2.87;;;20.70;99.90;;;;;;5077105;28;20458;-74
2021/08/07 08:10:22;;;;;;;4.27;2.60;;;20.80;99.90;;;;;;5076407;28;20465;-74
2021/08/07 08:12:50;;;;;;;3.60;2.60;;;20.80;95.10;;;;;;5077646;28;20522;-75
2021/08/07 08:15:18;;;;;;;5.43;2.73;;;20.90;77.70;;;;;;5077132;28;20486;-74
2021/08/07 08:17:47;;;;;;;3.30;2.40;;;21.00;65.10;;;;;;5076334;28;20599;-75
2021/08/07 08:20:14;;;;;;;2.60;2.40;;;21.00;72.00;;;;;;5077087;28;20485;-75
2021/08/07 08:22:42;;;;;;;3.20;2.53;;;21.00;70.20;;;;;;5078452;28;20450;-75
2021/08/07 08:25:11;;;;;;;2.43;2.23;;;21.10;52.40;;;;;;5076462;28;20465;-75
2021/08/07 08:27:38;;;;;;;3.20;2.90;;;21.10;63.10;;;;;;5076072;28;20936;-74
2021/08/07 08:30:07;;;;;;;2.77;2.50;;;21.30;61.70;;;;;;5076415;28;20556;-74
2021/08/07 08:32:35;;;;;;;3.43;2.70;;;21.40;57.80;;;;;;5077016;28;20484;-75
2021/08/07 08:35:05;;;;;;;3.27;2.97;;;21.50;51.90;;;;;;5075897;28;20481;-76
2021/08/07 08:37:32;;;;;;;2.17;1.97;;;21.60;25.00;;;;;;5076358;28;20454;-76
2021/08/07 08:39:59;;;;;;;2.40;2.20;;;21.70;21.70;;;;;;5075720;28;20576;-74
2021/08/07 08:42:27;;;;;;;2.60;2.40;;;21.80;11.80;;;;;;5076515;28;20760;-75
2021/08/07 08:44:55;;;;;;;2.47;2.27;;;21.90;1.00;;;;;;5075193;28;20454;-73
2021/08/07 08:47:23;;;;;;;3.50;2.33;;;21.90;1.00;;;;;;5075583;28;20462;-74
2021/08/07 08:49:52;;;;;;;3.13;2.50;;;21.80;99.90;;;;;;5075133;28;20752;-74
2021/08/07 08:52:24;;;;;;;3.27;2.20;;;21.80;99.90;;;;;;5075337;28;20498;-74
2021/08/07 08:54:52;;;;;;;2.83;2.07;;;21.80;99.90;;;;;;5075626;28;20462;-74
2021/08/07 08:57:18;;;;;;;2.87;2.30;;;21.90;99.90;;;;;;5074810;28;20925;-75
2021/08/07 08:59:46;;;;;;;7.33;2.13;;;22.00;39.70;;;;;;5075025;28;20465;-74
2021/08/07 09:02:15;;;;;;;4.63;2.67;;;22.00;1.00;;;;;;5075937;28;20761;-75
2021/08/07 09:04:42;;;;;;;2.77;2.57;;;22.00;1.00;;;;;;5074906;28;20560;-74
2021/08/07 09:07:09;;;;;;;2.17;1.97;;;22.10;1.00;;;;;;5075196;28;20458;-74
2021/08/07 09:09:39;;;;;;;2.63;2.43;;;22.10;99.90;;;;;;5074538;28;20470;-72
2021/08/07 09:12:08;;;;;;;3.20;2.10;;;22.10;99.90;;;;;;5075280;28;20473;-74
2021/08/07 09:14:36;;;;;;;2.57;2.20;;;22.00;1.00;;;;;;5075361;28;20482;-73
2021/08/07 09:17:16;;;;;;;2.63;1.90;;;21.90;1.00;;;;;;5075009;28;20454;-74
2021/08/07 09:19:57;;;;;;;5.40;2.00;;;22.00;1.00;;;;;;5074959;28;20828;-73
2021/08/07 09:22:27;;;;;;;2.90;2.07;;;22.00;99.90;;;;;;5074015;28;20443;-74
2021/08/07 09:25:07;;;;;;;2.13;1.90;;;22.10;99.90;;;;;;5074886;28;20565;-74
2021/08/07 09:27:36;;;;;;;2.80;1.93;;;22.10;99.90;;;;;;5074571;28;20905;-73
2021/08/07 09:30:23;;;;;;;2.77;2.07;;;22.10;99.90;;;;;;5074402;28;20462;-74
2021/08/07 09:32:51;;;;;;;2.33;2.13;;;22.20;23.70;;;;;;5074410;28;20929;-74
2021/08/07 09:35:21;;;;;;;2.33;2.10;;;22.30;99.90;;;;;;5074908;28;20482;-74
2021/08/07 09:38:10;;;;;;;1.97;1.77;;;22.50;1.00;;;;;;5074649;28;20531;-74
2021/08/07 09:40:48;;;;;;;2.83;2.43;;;22.60;1.00;;;;;;5074816;28;20553;-73
2021/08/07 09:43:18;;;;;;;2.37;1.80;;;22.70;1.00;;;;;;5074546;28;20433;-74
2021/08/07 09:45:59;;;;;;;2.10;1.80;;;22.70;1.00;;;;;;5074998;28;20755;-74
2021/08/07 09:48:32;;;;;;;2.23;1.90;;;22.90;1.00;;;;;;5074755;28;20952;-74
2021/08/07 09:50:59;;;;;;;2.20;2.00;;;23.00;99.90;;;;;;5075033;28;20740;-74
2021/08/07 09:53:28;;;;;;;4.03;1.77;;;23.00;99.90;;;;;;5074656;28;20469;-73
2021/08/07 09:56:07;;;;;;;2.27;1.70;;;23.00;99.90;;;;;;5075207;28;20520;-74
2021/08/07 09:58:35;;;;;;;3.30;1.87;;;23.00;26.80;;;;;;5075186;28;20986;-74
2021/08/07 10:01:02;;;;;;;1.73;1.63;;;23.10;27.00;;;;;;5075661;28;20458;-74
2021/08/07 10:03:32;;;;;;;2.60;2.40;;;23.10;32.50;;;;;;5075413;28;20454;-74
2021/08/07 10:06:19;;;;;;;3.33;2.07;;;23.20;2.80;;;;;;5075802;28;20454;-74
2021/08/07 10:08:48;;;;;;;3.10;1.47;;;23.20;1.00;;;;;;5075900;28;20453;-74
2021/08/07 10:11:20;;;;;;;2.00;1.80;;;23.20;1.00;;;;;;5075197;28;20458;-76
2021/08/07 10:13:47;;;;;;;4.70;2.00;;;23.30;1.00;;;;;;5075531;28;20447;-75
2021/08/07 10:16:16;;;;;;;2.60;1.70;;;23.40;1.00;;;;;;5075472;28;20458;-74
2021/08/07 10:18:45;;;;;;;2.03;1.50;;;23.50;1.00;;;;;;5075334;28;20523;-73
2021/08/07 10:21:14;;;;;;;1.90;1.80;;;23.50;1.00;;;;;;5075569;28;20466;-74
2021/08/07 10:23:42;;;;;;;2.00;1.80;;;23.60;1.00;;;;;;5075954;28;20454;-73
2021/08/07 10:26:14;;;;;;;2.37;1.90;;;23.60;1.00;;;;;;5076796;28;20803;-74
2021/08/07 10:28:47;;;;;;;1.53;1.30;;;23.80;1.00;;;;;;5076710;28;20495;-74
2021/08/07 10:31:16;;;;;;;1.50;1.40;;;23.90;1.00;;;;;;5076382;28;20541;-74
2021/08/07 10:33:48;;;;;;;1.77;1.50;;;23.90;1.00;;;;;;5076306;28;20446;-74
2021/08/07 10:36:15;;;;;;;1.87;1.60;;;24.00;1.00;;;;;;5079560;28;20492;-74
2021/08/07 10:38:42;;;;;;;1.70;1.40;;;24.10;1.00;;;;;;5079051;28;20496;-74
2021/08/07 10:41:10;;;;;;;2.83;1.53;;;24.20;1.00;;;;;;5079810;28;20439;-74
2021/08/07 10:43:38;;;;;;;2.17;1.40;;;24.40;1.00;;;;;;5079644;28;20860;-73
2021/08/07 10:46:08;;;;;;;1.27;1.17;;;24.40;99.90;;;;;;5079744;28;20518;-73
2021/08/07 10:48:37;;;;;;;3.27;1.20;;;24.50;99.90;;;;;;5079715;28;20459;-74
2021/08/07 10:51:39;;;;;;;2.00;1.40;;;24.50;99.90;;;;;;5079561;28;20779;-74
2021/08/07 10:54:22;;;;;;;1.40;1.30;;;24.50;99.90;;;;;;5073610;28;20461;-74
2021/08/07 10:56:50;;;;;;;1.30;1.13;;;24.50;99.90;;;;;;5079012;28;20810;-74
2021/08/07 10:59:23;;;;;;;1.63;1.53;;;24.40;99.90;;;;;;5079172;28;20861;-74
2021/08/07 11:01:52;;;;;;;1.60;1.30;;;24.40;99.90;;;;;;5079031;28;20863;-74
2021/08/07 11:04:30;;;;;;;3.43;1.50;;;24.40;99.90;;;;;;5079054;28;20638;-74
2021/08/07 11:07:08;;;;;;;1.40;1.17;;;24.50;99.90;;;;;;5079012;28;20442;-74
2021/08/07 11:09:40;;;;;;;1.70;1.20;;;24.50;99.90;;;;;;5079189;28;20758;-75
2021/08/07 11:12:20;;;;;;;1.30;1.20;;;24.60;99.90;;;;;;5079269;28;20478;-75
2021/08/07 11:14:58;;;;;;;3.33;1.80;;;24.70;99.90;;;;;;5077856;28;20486;-74
2021/08/07 11:17:36;;;;;;;1.70;1.23;;;24.70;99.90;;;;;;5077391;28;20442;-75
2021/08/07 11:20:08;;;;;;;1.97;1.50;;;24.60;99.90;;;;;;5077031;28;20918;-74
2021/08/07 11:23:12;;;;;;;1.50;1.40;;;24.60;99.90;;;;;;5077650;28;20447;-75
2021/08/07 11:25:54;;;;;;;1.87;1.40;;;24.80;99.90;;;;;;5077947;28;20426;-75
2021/08/07 11:28:21;;;;;;;1.43;1.33;;;24.90;1.00;;;;;;5077402;28;20438;-74
2021/08/07 11:30:49;;;;;;;1.60;1.33;;;25.00;99.90;;;;;;5078115;28;20460;-74
2021/08/07 11:33:25;;;;;;;1.50;1.40;;;25.20;99.90;;;;;;5078771;28;20813;-74
2021/08/07 11:36:06;;;;;;;1.37;1.23;;;25.60;1.00;;;;;;5080211;28;20470;-73
2021/08/07 11:38:34;;;;;;;1.50;1.40;;;26.00;1.00;;;;;;5077898;28;20454;-73
2021/08/07 11:41:05;;;;;;;1.83;1.20;;;26.40;99.90;;;;;;5077628;28;20525;-73
2021/08/07 11:43:34;;;;;;;1.47;1.10;;;26.70;1.00;;;;;;5077590;28;20450;-74
2021/08/07 11:46:06;;;;;;;1.53;1.23;;;27.00;99.90;;;;;;5077244;28;20545;-73
2021/08/07 11:48:36;;;;;;;1.90;1.67;;;27.20;99.90;;;;;;5078583;28;20470;-74
2021/08/07 11:51:06;;;;;;;1.20;1.07;;;27.40;99.90;;;;;;5078708;28;20449;-74
2021/08/07 11:53:34;;;;;;;1.50;1.40;;;27.30;99.90;;;;;;5079569;28;20469;-74
2021/08/07 11:56:04;;;;;;;1.20;1.03;;;27.40;99.90;;;;;;5080007;28;20477;-74
2021/08/07 11:58:32;;;;;;;2.17;1.10;;;27.30;99.90;;;;;;5077943;28;20453;-74
2021/08/07 12:01:02;;;;;;;1.20;1.00;;;27.30;99.90;;;;;;5077274;28;20522;-74
2021/08/07 12:03:38;;;;;;;2.57;1.47;;;27.10;99.90;;;;;;5078173;28;20592;-75
2021/08/07 12:06:07;;;;;;;1.27;1.17;;;27.10;99.90;;;;;;5077921;28;20542;-74
2021/08/07 12:08:36;;;;;;;2.07;1.10;;;27.30;1.00;;;;;;5077685;28;20459;-74
2021/08/07 12:11:05;;;;;;;1.30;1.17;;;27.40;1.00;;;;;;5078871;28;20462;-74
2021/08/07 12:13:34;;;;;;;2.17;1.20;;;27.50;1.00;;;;;;5081919;28;20469;-75
2021/08/07 12:16:03;;;;;;;3.80;1.13;;;27.60;1.00;;;;;;5080261;28;20478;-75
2021/08/07 12:18:42;;;;;;;3.40;1.10;;;27.40;22.50;;;;;;5079222;28;20469;-74
2021/08/07 12:21:11;;;;;;;2.13;1.10;;;27.00;99.90;;;;;;5081244;28;20458;-74
2021/08/07 12:23:43;;;;;;;1.10;0.90;;;26.80;99.90;;;;;;5080164;28;20462;-75
2021/08/07 12:26:12;;;;;;;3.63;1.10;;;26.70;99.90;;;;;;5079802;28;20482;-75
2021/08/07 12:28:40;;;;;;;2.03;1.07;;;26.70;99.90;;;;;;5079730;28;20465;-75
2021/08/07 12:31:07;;;;;;;1.60;1.00;;;26.70;99.90;;;;;;5080609;28;20810;-74
2021/08/07 12:33:37;;;;;;;2.27;1.10;;;26.80;99.90;;;;;;5082861;28;20561;-75
2021/08/07 12:36:13;;;;;;;1.40;1.27;;;26.90;1.00;;;;;;5081557;28;20513;-73
2021/08/07 12:38:42;;;;;;;1.60;1.10;;;27.30;61.40;;;;;;5079652;28;20442;-75
2021/08/07 12:41:09;;;;;;;2.00;1.20;;;27.60;1.00;;;;;;5082040;28;20474;-74
2021/08/07 12:43:37;;;;;;;1.10;0.90;;;28.00;99.90;;;;;;5081482;28;20953;-75
2021/08/07 12:46:05;;;;;;;2.20;1.20;;;28.20;90.90;;;;;;5082821;28;20454;-74
2021/08/07 12:48:49;;;;;;;1.73;1.10;;;28.30;99.90;;;;;;5085553;28;20454;-74
2021/08/07 12:51:24;;;;;;;1.70;1.13;;;28.50;99.90;;;;;;5083735;28;20454;-75
2021/08/07 12:53:52;;;;;;;3.27;1.10;;;28.60;1.00;;;;;;5082694;28;20435;-75
2021/08/07 12:56:21;;;;;;;1.20;0.90;;;28.70;1.00;;;;;;5083334;28;20511;-74
2021/08/07 12:58:59;;;;;;;1.40;1.20;;;28.60;99.90;;;;;;5081598;28;20469;-74